sensor_id;sensor_type;location;lat;lon;timestamp;pressure;altitude;pressure_sealevel;temperature;humidity
7052;BME280;3567;52.444;13.556;2023-10-13T00:01:01;101058.69;;;13.21;100.00
7052;BME280;3567;52.444;13.556;2023-10-13T00:03:30;101059.31;;;13.23;100.00
7052;BME280;3567;52.444;13.556;2023-10-13T00:05:57;101063.63;;;13.24;100.00
7052;BME280;3567;52.444;13.556;2023-10-13T00:08:28;101057.19;;;13.25;100.00
7052;BME280;3567;52.444;13.556;2023-10-13T00:10:54;101059.66;;;13.26;100.00
7052;BME280;3567;52.444;13.556;2023-10-13T00:13:27;101061.53;;;13.26;100.00
7052;BME280;3567;52.444;13.556;2023-10-13T00:15:53;101056.97;;;13.26;100.00
7052;BME280;3567;52.444;13.556;2023-10-13T00:18:29;101060.25;;;13.28;100.00
7052;BME280;3567;52.444;13.556;2023-10-13T00:21:06;101056.13;;;13.26;100.00
7052;BME280;3567;52.444;13.556;2023-10-13T00:23:38;101053.44;;;13.26;100.00
7052;BME280;3567;52.444;13.556;2023-10-13T00:26:04;101046.22;;;13.26;100.00
7052;BME280;3567;52.444;13.556;2023-10-13T00:28:34;101048.41;;;13.29;100.00
7052;BME280;3567;52.444;13.556;2023-10-13T00:31:23;101049.47;;;13.28;100.00
7052;BME280;3567;52.444;13.556;2023-10-13T00:33:48;101051.59;;;13.26;100.00
7052;BME280;3567;52.444;13.556;2023-10-13T00:36:16;101043.75;;;13.25;100.00
7052;BME280;3567;52.444;13.556;2023-10-13T00:38:44;101046.22;;;13.26;100.00
7052;BME280;3567;52.444;13.556;2023-10-13T00:41:14;101038.38;;;13.25;100.00
7052;BME280;3567;52.444;13.556;2023-10-13T00:43:46;101035.94;;;13.23;100.00
7052;BME280;3567;52.444;13.556;2023-10-13T00:46:31;101035.13;;;13.23;100.00
7052;BME280;3567;52.444;13.556;2023-10-13T00:48:58;101037.16;;;13.21;100.00
7052;BME280;3567;52.444;13.556;2023-10-13T00:51:24;101027.72;;;13.18;100.00
7052;BME280;3567;52.444;13.556;2023-10-13T00:54:07;101033.34;;;13.17;100.00
7052;BME280;3567;52.444;13.556;2023-10-13T00:56:40;101031.72;;;13.16;100.00
7052;BME280;3567;52.444;13.556;2023-10-13T00:59:13;101023.06;;;13.14;100.00
7052;BME280;3567;52.444;13.556;2023-10-13T01:01:39;101024.13;;;13.13;100.00
7052;BME280;3567;52.444;13.556;2023-10-13T01:04:08;101027.88;;;13.11;100.00
7052;BME280;3567;52.444;13.556;2023-10-13T01:06:37;101029.97;;;13.09;100.00
7052;BME280;3567;52.444;13.556;2023-10-13T01:11:43;101025.38;;;13.10;100.00
7052;BME280;3567;52.444;13.556;2023-10-13T01:14:09;101028.94;;;13.10;100.00
7052;BME280;3567;52.444;13.556;2023-10-13T01:16:37;101026.22;;;13.10;100.00
7052;BME280;3567;52.444;13.556;2023-10-13T01:19:08;101022.69;;;13.10;100.00
7052;BME280;3567;52.444;13.556;2023-10-13T01:21:37;101013.81;;;13.09;100.00
7052;BME280;3567;52.444;13.556;2023-10-13T01:24:06;101024.56;;;13.09;100.00
7052;BME280;3567;52.444;13.556;2023-10-13T01:26:34;101012.19;;;13.08;100.00
7052;BME280;3567;52.444;13.556;2023-10-13T01:29:05;101024.56;;;13.09;100.00
7052;BME280;3567;52.444;13.556;2023-10-13T01:31:41;101027.06;;;13.11;100.00
7052;BME280;3567;52.444;13.556;2023-10-13T01:34:16;101028.09;;;13.10;100.00
7052;BME280;3567;52.444;13.556;2023-10-13T01:36:54;101029.75;;;13.11;100.00
7052;BME280;3567;52.444;13.556;2023-10-13T01:39:24;101028.94;;;13.10;100.00
7052;BME280;3567;52.444;13.556;2023-10-13T01:41:56;101026.81;;;13.13;100.00
7052;BME280;3567;52.444;13.556;2023-10-13T01:44:25;101026.22;;;13.10;100.00
7052;BME280;3567;52.444;13.556;2023-10-13T01:46:59;101025.19;;;13.11;100.00
7052;BME280;3567;52.444;13.556;2023-10-13T01:49:34;101028.69;;;13.12;100.00
7052;BME280;3567;52.444;13.556;2023-10-13T01:52:12;101034.88;;;13.13;100.00
7052;BME280;3567;52.444;13.556;2023-10-13T01:54:44;101037.81;;;13.11;100.00
7052;BME280;3567;52.444;13.556;2023-10-13T01:57:10;101034.88;;;13.13;100.00
7052;BME280;3567;52.444;13.556;2023-10-13T01:59:42;101032.19;;;13.13;100.00
7052;BME280;3567;52.444;13.556;2023-10-13T02:02:12;101033.56;;;13.15;100.00
7052;BME280;3567;52.444;13.556;2023-10-13T02:04:41;101017.91;;;13.12;100.00
7052;BME280;3567;52.444;13.556;2023-10-13T02:07:08;101016.28;;;13.11;100.00
7052;BME280;3567;52.444;13.556;2023-10-13T02:09:34;101021.44;;;13.13;100.00
7052;BME280;3567;52.444;13.556;2023-10-13T02:12:02;101021.66;;;13.11;100.00
7052;BME280;3567;52.444;13.556;2023-10-13T02:14:27;101024.13;;;13.13;100.00
7052;BME280;3567;52.444;13.556;2023-10-13T02:16:53;101008.78;;;13.13;100.00
7052;BME280;3567;52.444;13.556;2023-10-13T02:19:37;100998.84;;;13.14;100.00
7052;BME280;3567;52.444;13.556;2023-10-13T02:22:05;101003.41;;;13.13;100.00
7052;BME280;3567;52.444;13.556;2023-10-13T02:24:34;100997.22;;;13.13;100.00
7052;BME280;3567;52.444;13.556;2023-10-13T02:26:59;101000.47;;;13.15;100.00
7052;BME280;3567;52.444;13.556;2023-10-13T02:29:38;100985.16;;;13.15;100.00
7052;BME280;3567;52.444;13.556;2023-10-13T02:32:04;100983.31;;;13.16;100.00
7052;BME280;3567;52.444;13.556;2023-10-13T02:34:37;100979.56;;;13.17;100.00
7052;BME280;3567;52.444;13.556;2023-10-13T02:37:09;100980.38;;;13.17;100.00
7052;BME280;3567;52.444;13.556;2023-10-13T02:39:34;100986.56;;;13.18;100.00
7052;BME280;3567;52.444;13.556;2023-10-13T02:42:01;100972.28;;;13.17;100.00
7052;BME280;3567;52.444;13.556;2023-10-13T02:44:32;100976.06;;;13.16;100.00
7052;BME280;3567;52.444;13.556;2023-10-13T02:47:01;100964.47;;;13.16;100.00
7052;BME280;3567;52.444;13.556;2023-10-13T02:49:29;100969.59;;;13.17;100.00
7052;BME280;3567;52.444;13.556;2023-10-13T02:51:59;100966.66;;;13.19;100.00
7052;BME280;3567;52.444;13.556;2023-10-13T02:54:30;100971.22;;;13.18;100.00
7052;BME280;3567;52.444;13.556;2023-10-13T02:56:56;100966.09;;;13.17;100.00
7052;BME280;3567;52.444;13.556;2023-10-13T02:59:31;100970.41;;;13.18;100.00
7052;BME280;3567;52.444;13.556;2023-10-13T03:02:04;100966.66;;;13.19;100.00
7052;BME280;3567;52.444;13.556;2023-10-13T03:04:43;100961.28;;;13.19;100.00
7052;BME280;3567;52.444;13.556;2023-10-13T03:07:08;100960.22;;;13.20;100.00
7052;BME280;3567;52.444;13.556;2023-10-13T03:09:34;100961.84;;;13.21;100.00
7052;BME280;3567;52.444;13.556;2023-10-13T03:12:02;100954.66;;;13.21;100.00
7052;BME280;3567;52.444;13.556;2023-10-13T03:14:29;100955.22;;;13.23;100.00
7052;BME280;3567;52.444;13.556;2023-10-13T03:16:59;100946.91;;;13.25;100.00
7052;BME280;3567;52.444;13.556;2023-10-13T03:19:28;100948.53;;;13.26;100.00
7052;BME280;3567;52.444;13.556;2023-10-13T03:22:01;100928.66;;;13.27;100.00
7052;BME280;3567;52.444;13.556;2023-10-13T03:24:50;100938.13;;;13.29;100.00
7052;BME280;3567;52.444;13.556;2023-10-13T03:27:19;100928.97;;;13.30;100.00
7052;BME280;3567;52.444;13.556;2023-10-13T03:29:48;100925.22;;;13.31;100.00
7052;BME280;3567;52.444;13.556;2023-10-13T03:32:21;100928.75;;;13.32;100.00
7052;BME280;3567;52.444;13.556;2023-10-13T03:34:47;100927.69;;;13.33;100.00
7052;BME280;3567;52.444;13.556;2023-10-13T03:37:19;100918.31;;;13.35;100.00
7052;BME280;3567;52.444;13.556;2023-10-13T03:40:06;100907.31;;;13.37;100.00
7052;BME280;3567;52.444;13.556;2023-10-13T03:42:47;100903.56;;;13.38;100.00
7052;BME280;3567;52.444;13.556;2023-10-13T03:45:25;100891.75;;;13.39;100.00
7052;BME280;3567;52.444;13.556;2023-10-13T03:47:51;100896.88;;;13.41;100.00
7052;BME280;3567;52.444;13.556;2023-10-13T03:50:19;100891.25;;;13.42;100.00
7052;BME280;3567;52.444;13.556;2023-10-13T03:53:00;100887.50;;;13.43;100.00
7052;BME280;3567;52.444;13.556;2023-10-13T03:55:27;100885.38;;;13.45;100.00
7052;BME280;3567;52.444;13.556;2023-10-13T03:57:53;100887.81;;;13.47;100.00
7052;BME280;3567;52.444;13.556;2023-10-13T04:00:20;100891.31;;;13.47;100.00
7052;BME280;3567;52.444;13.556;2023-10-13T04:02:53;100887.59;;;13.48;100.00
7052;BME280;3567;52.444;13.556;2023-10-13T04:05:33;100885.94;;;13.47;100.00
7052;BME280;3567;52.444;13.556;2023-10-13T04:08:10;100892.16;;;13.48;100.00
7052;BME280;3567;52.444;13.556;2023-10-13T04:10:54;100884.91;;;13.48;100.00
7052;BME280;3567;52.444;13.556;2023-10-13T04:13:20;100890.28;;;13.48;100.00
7052;BME280;3567;52.444;13.556;2023-10-13T04:16:04;100889.22;;;13.49;100.00
7052;BME280;3567;52.444;13.556;2023-10-13T04:18:47;100887.59;;;13.48;100.00
7052;BME280;3567;52.444;13.556;2023-10-13T04:21:25;100886.78;;;13.48;100.00
7052;BME280;3567;52.444;13.556;2023-10-13T04:24:10;100885.94;;;13.47;100.00
7052;BME280;3567;52.444;13.556;2023-10-13T04:26:42;100874.97;;;13.49;100.00
7052;BME280;3567;52.444;13.556;2023-10-13T04:29:27;100875.78;;;13.49;100.00
7052;BME280;3567;52.444;13.556;2023-10-13T04:32:11;100872.00;;;13.50;100.00
7052;BME280;3567;52.444;13.556;2023-10-13T04:34:40;100860.19;;;13.51;100.00
7052;BME280;3567;52.444;13.556;2023-10-13T04:37:11;100857.25;;;13.53;100.00
7052;BME280;3567;52.444;13.556;2023-10-13T04:39:48;100857.00;;;13.54;100.00
7052;BME280;3567;52.444;13.556;2023-10-13T04:42:21;100854.88;;;13.56;100.00
7052;BME280;3567;52.444;13.556;2023-10-13T04:45:06;100853.81;;;13.57;100.00
7052;BME280;3567;52.444;13.556;2023-10-13T04:47:51;100844.72;;;13.58;100.00
7052;BME280;3567;52.444;13.556;2023-10-13T04:50:22;100850.91;;;13.59;100.00
7052;BME280;3567;52.444;13.556;2023-10-13T04:52:55;100841.75;;;13.60;100.00
7052;BME280;3567;52.444;13.556;2023-10-13T04:55:27;100837.19;;;13.60;100.00
7052;BME280;3567;52.444;13.556;2023-10-13T04:58:09;100828.06;;;13.61;100.00
7052;BME280;3567;52.444;13.556;2023-10-13T05:01:03;100830.47;;;13.63;100.00
7052;BME280;3567;52.444;13.556;2023-10-13T05:03:48;100827.56;;;13.65;100.00
7052;BME280;3567;52.444;13.556;2023-10-13T05:06:46;100819.72;;;13.63;100.00
7052;BME280;3567;52.444;13.556;2023-10-13T05:09:12;100827.56;;;13.65;100.00
7052;BME280;3567;52.444;13.556;2023-10-13T05:11:58;100822.19;;;13.65;100.00
7052;BME280;3567;52.444;13.556;2023-10-13T05:14:42;100832.44;;;13.68;100.00
7052;BME280;3567;52.444;13.556;2023-10-13T05:17:26;100833.03;;;13.70;100.00
7052;BME280;3567;52.444;13.556;2023-10-13T05:20:10;100824.44;;;13.73;100.00
7052;BME280;3567;52.444;13.556;2023-10-13T05:22:54;100825.03;;;13.75;100.00
7052;BME280;3567;52.444;13.556;2023-10-13T05:25:38;100828.28;;;13.77;100.00
7052;BME280;3567;52.444;13.556;2023-10-13T05:28:23;100825.91;;;13.80;100.00
7052;BME280;3567;52.444;13.556;2023-10-13T05:31:08;100818.13;;;13.84;100.00
7052;BME280;3567;52.444;13.556;2023-10-13T05:33:54;100815.78;;;13.87;100.00
7052;BME280;3567;52.444;13.556;2023-10-13T05:36:38;100823.09;;;13.92;100.00
7052;BME280;3567;52.444;13.556;2023-10-13T05:39:23;100831.25;;;13.97;100.00
7052;BME280;3567;52.444;13.556;2023-10-13T05:42:07;100831.56;;;14.01;100.00
7052;BME280;3567;52.444;13.556;2023-10-13T05:44:51;100830.25;;;14.03;100.00
7052;BME280;3567;52.444;13.556;2023-10-13T05:47:35;100824.38;;;14.06;100.00
7052;BME280;3567;52.444;13.556;2023-10-13T05:50:03;100826.31;;;14.11;100.00
7052;BME280;3567;52.444;13.556;2023-10-13T05:52:54;100823.94;;;14.14;100.00
7052;BME280;3567;52.444;13.556;2023-10-13T05:55:21;100833.66;;;14.15;100.00
7052;BME280;3567;52.444;13.556;2023-10-13T05:58:05;100835.84;;;14.19;100.00
7052;BME280;3567;52.444;13.556;2023-10-13T06:00:51;100826.22;;;14.23;100.00
7052;BME280;3567;52.444;13.556;2023-10-13T06:03:35;100819.25;;;14.27;100.00
7052;BME280;3567;52.444;13.556;2023-10-13T06:06:19;100820.38;;;14.31;100.00
7052;BME280;3567;52.444;13.556;2023-10-13T06:09:03;100816.94;;;14.35;100.00
7052;BME280;3567;52.444;13.556;2023-10-13T06:11:47;100802.44;;;14.41;100.00
7052;BME280;3567;52.444;13.556;2023-10-13T06:14:31;100807.88;;;14.47;100.00
7052;BME280;3567;52.444;13.556;2023-10-13T06:17:15;100807.16;;;14.51;100.00
7052;BME280;3567;52.444;13.556;2023-10-13T06:19:59;100799.13;;;14.56;100.00
7052;BME280;3567;52.444;13.556;2023-10-13T06:22:43;100793.81;;;14.61;100.00
7052;BME280;3567;52.444;13.556;2023-10-13T06:25:30;100789.59;;;14.71;100.00
7052;BME280;3567;52.444;13.556;2023-10-13T06:28:14;100800.00;;;14.89;100.00
7052;BME280;3567;52.444;13.556;2023-10-13T06:30:59;100795.19;;;14.96;100.00
7052;BME280;3567;52.444;13.556;2023-10-13T06:33:26;100789.31;;;14.99;100.00
7052;BME280;3567;52.444;13.556;2023-10-13T06:35:57;100795.50;;;15.00;100.00
7052;BME280;3567;52.444;13.556;2023-10-13T06:38:23;100804.41;;;15.00;100.00
7052;BME280;3567;52.444;13.556;2023-10-13T06:40:49;100803.91;;;15.03;100.00
7052;BME280;3567;52.444;13.556;2023-10-13T06:43:16;100809.06;;;15.05;100.00
7052;BME280;3567;52.444;13.556;2023-10-13T06:45:44;100808.78;;;15.06;100.00
7052;BME280;3567;52.444;13.556;2023-10-13T06:48:28;100803.69;;;15.10;100.00
7052;BME280;3567;52.444;13.556;2023-10-13T06:51:02;100801.31;;;15.13;100.00
7052;BME280;3567;52.444;13.556;2023-10-13T06:53:43;100802.41;;;15.17;100.00
7052;BME280;3567;52.444;13.556;2023-10-13T06:56:15;100805.94;;;15.23;100.00
7052;BME280;3567;52.444;13.556;2023-10-13T06:58:53;100794.97;;;15.30;100.00
7052;BME280;3567;52.444;13.556;2023-10-13T07:01:27;100800.94;;;15.37;100.00
7052;BME280;3567;52.444;13.556;2023-10-13T07:03:53;100788.56;;;15.41;100.00
7052;BME280;3567;52.444;13.556;2023-10-13T07:06:21;100792.13;;;15.46;100.00
7052;BME280;3567;52.444;13.556;2023-10-13T07:08:47;100797.56;;;15.52;100.00
7052;BME280;3567;52.444;13.556;2023-10-13T07:11:24;100789.28;;;15.63;100.00
7052;BME280;3567;52.444;13.556;2023-10-13T07:14:00;100790.16;;;15.74;100.00
7052;BME280;3567;52.444;13.556;2023-10-13T07:16:26;100789.41;;;15.84;100.00
7052;BME280;3567;52.444;13.556;2023-10-13T07:19:00;100792.69;;;15.96;100.00
7052;BME280;3567;52.444;13.556;2023-10-13T07:21:30;100794.09;;;16.04;100.00
7052;BME280;3567;52.444;13.556;2023-10-13T07:23:59;100785.75;;;16.10;100.00
7052;BME280;3567;52.444;13.556;2023-10-13T07:26:37;100785.78;;;16.15;100.00
7052;BME280;3567;52.444;13.556;2023-10-13T07:29:11;100780.09;;;16.17;100.00
7052;BME280;3567;52.444;13.556;2023-10-13T07:31:36;100780.91;;;16.22;100.00
7052;BME280;3567;52.444;13.556;2023-10-13T07:34:04;100779.84;;;16.29;100.00
7052;BME280;3567;52.444;13.556;2023-10-13T07:36:47;100783.13;;;16.31;100.00
7052;BME280;3567;52.444;13.556;2023-10-13T07:39:14;100783.97;;;16.36;100.00
7052;BME280;3567;52.444;13.556;2023-10-13T07:41:51;100765.28;;;16.40;100.00
7052;BME280;3567;52.444;13.556;2023-10-13T07:44:23;100770.47;;;16.46;100.00
7052;BME280;3567;52.444;13.556;2023-10-13T07:46:57;100770.22;;;16.53;100.00
7052;BME280;3567;52.444;13.556;2023-10-13T07:49:29;100765.06;;;16.62;100.00
7052;BME280;3567;52.444;13.556;2023-10-13T07:52:02;100759.66;;;16.67;100.00
7052;BME280;3567;52.444;13.556;2023-10-13T07:54:44;100762.94;;;16.69;100.00
7052;BME280;3567;52.444;13.556;2023-10-13T07:57:21;100760.53;;;16.72;100.00
7052;BME280;3567;52.444;13.556;2023-10-13T07:59:55;100767.59;;;16.79;100.00
7052;BME280;3567;52.444;13.556;2023-10-13T08:02:32;100767.03;;;16.82;100.00
7052;BME280;3567;52.444;13.556;2023-10-13T08:05:17;100762.44;;;16.82;100.00
7052;BME280;3567;52.444;13.556;2023-10-13T08:08:05;100764.31;;;16.87;100.00
7052;BME280;3567;52.444;13.556;2023-10-13T08:10:39;100760.00;;;16.91;100.00
7052;BME280;3567;52.444;13.556;2023-10-13T08:13:07;100764.06;;;16.93;100.00
7052;BME280;3567;52.444;13.556;2023-10-13T08:15:39;100758.41;;;16.95;100.00
7052;BME280;3567;52.444;13.556;2023-10-13T08:18:05;100750.81;;;16.97;100.00
7052;BME280;3567;52.444;13.556;2023-10-13T08:20:39;100732.94;;;17.01;100.00
7052;BME280;3567;52.444;13.556;2023-10-13T08:23:05;100742.69;;;17.07;100.00
7052;BME280;3567;52.444;13.556;2023-10-13T08:25:40;100728.88;;;17.14;100.00
7052;BME280;3567;52.444;13.556;2023-10-13T08:28:37;100739.69;;;17.24;100.00
7052;BME280;3567;52.444;13.556;2023-10-13T08:31:06;100743.75;;;17.32;100.00
7052;BME280;3567;52.444;13.556;2023-10-13T08:33:51;100727.75;;;17.40;100.00
7052;BME280;3567;52.444;13.556;2023-10-13T08:36:30;100730.72;;;17.49;100.00
7052;BME280;3567;52.444;13.556;2023-10-13T08:38:56;100723.38;;;17.60;100.00
7052;BME280;3567;52.444;13.556;2023-10-13T08:41:24;100730.38;;;17.71;100.00
7052;BME280;3567;52.444;13.556;2023-10-13T08:43:55;100720.88;;;17.78;100.00
7052;BME280;3567;52.444;13.556;2023-10-13T08:46:30;100725.50;;;17.78;100.00
7052;BME280;3567;52.444;13.556;2023-10-13T08:49:04;100722.53;;;17.69;100.00
7052;BME280;3567;52.444;13.556;2023-10-13T08:51:43;100713.31;;;17.70;100.00
7052;BME280;3567;52.444;13.556;2023-10-13T08:54:15;100701.94;;;17.73;100.00
7052;BME280;3567;52.444;13.556;2023-10-13T08:56:48;100701.69;;;17.75;100.00
7052;BME280;3567;52.444;13.556;2023-10-13T08:59:23;100703.03;;;17.77;100.00
7052;BME280;3567;52.444;13.556;2023-10-13T09:01:58;100690.03;;;17.79;100.00
7052;BME280;3567;52.444;13.556;2023-10-13T09:04:42;100702.47;;;17.86;100.00
7052;BME280;3567;52.444;13.556;2023-10-13T09:07:09;100696.75;;;17.87;100.00
7052;BME280;3567;52.444;13.556;2023-10-13T09:12:16;100689.97;;;17.90;100.00
7052;BME280;3567;52.444;13.556;2023-10-13T09:14:52;100686.44;;;17.89;100.00
7052;BME280;3567;52.444;13.556;2023-10-13T09:17:25;100680.22;;;17.89;100.00
7052;BME280;3567;52.444;13.556;2023-10-13T09:20:00;100684.56;;;17.90;100.00
7052;BME280;3567;52.444;13.556;2023-10-13T09:22:44;100687.78;;;17.92;100.00
7052;BME280;3567;52.444;13.556;2023-10-13T09:25:22;100688.06;;;17.95;100.00
7052;BME280;3567;52.444;13.556;2023-10-13T09:27:48;100686.97;;;17.96;100.00
7052;BME280;3567;52.444;13.556;2023-10-13T09:30:17;100670.41;;;17.98;100.00
7052;BME280;3567;52.444;13.556;2023-10-13T09:32:46;100682.63;;;18.00;100.00
7052;BME280;3567;52.444;13.556;2023-10-13T09:35:21;100670.69;;;17.96;100.00
7052;BME280;3567;52.444;13.556;2023-10-13T09:37:52;100670.16;;;17.94;100.00
7052;BME280;3567;52.444;13.556;2023-10-13T09:40:24;100657.69;;;17.93;100.00
7052;BME280;3567;52.444;13.556;2023-10-13T09:42:55;100660.94;;;17.95;100.00
7052;BME280;3567;52.444;13.556;2023-10-13T09:45:30;100654.16;;;17.98;100.00
7052;BME280;3567;52.444;13.556;2023-10-13T09:48:12;100640.34;;;17.94;100.00
7052;BME280;3567;52.444;13.556;2023-10-13T09:50:48;100633.91;;;17.85;100.00
7052;BME280;3567;52.444;13.556;2023-10-13T09:53:14;100635.84;;;17.79;100.00
7052;BME280;3567;52.444;13.556;2023-10-13T09:58:39;100618.22;;;17.72;100.00
7052;BME280;3567;52.444;13.556;2023-10-13T10:01:16;100608.75;;;17.69;100.00
7052;BME280;3567;52.444;13.556;2023-10-13T10:03:47;100608.50;;;17.66;100.00
7052;BME280;3567;52.444;13.556;2023-10-13T10:06:39;100611.50;;;17.64;100.00
7052;BME280;3567;52.444;13.556;2023-10-13T10:09:10;100600.09;;;17.67;100.00
7052;BME280;3567;52.444;13.556;2023-10-13T10:17:08;100588.09;;;17.84;100.00
7052;BME280;3567;52.444;13.556;2023-10-13T10:19:48;100584.56;;;17.88;100.00
7052;BME280;3567;52.444;13.556;2023-10-13T10:22:25;100594.56;;;17.93;100.00
7052;BME280;3567;52.444;13.556;2023-10-13T10:24:58;100593.16;;;18.00;100.00
7052;BME280;3567;52.444;13.556;2023-10-13T10:27:31;100586.88;;;18.05;100.00
7052;BME280;3567;52.444;13.556;2023-10-13T10:29:57;100592.31;;;18.05;100.00
7052;BME280;3567;52.444;13.556;2023-10-13T10:32:36;100585.81;;;18.06;100.00
7052;BME280;3567;52.444;13.556;2023-10-13T10:35:06;100587.38;;;18.12;100.00
7052;BME280;3567;52.444;13.556;2023-10-13T10:37:46;100584.09;;;18.15;100.00
7052;BME280;3567;52.444;13.556;2023-10-13T10:40:15;100581.94;;;18.17;100.00
7052;BME280;3567;52.444;13.556;2023-10-13T10:42:58;100587.91;;;18.14;100.00
7052;BME280;3567;52.444;13.556;2023-10-13T10:45:27;100582.22;;;18.11;100.00
7052;BME280;3567;52.444;13.556;2023-10-13T10:47:58;100573.31;;;18.05;100.00
7052;BME280;3567;52.444;13.556;2023-10-13T10:50:27;100573.31;;;18.05;100.00
7052;BME280;3567;52.444;13.556;2023-10-13T10:53:04;100573.31;;;18.05;100.00
7052;BME280;3567;52.444;13.556;2023-10-13T10:55:36;100565.75;;;18.07;100.00
7052;BME280;3567;52.444;13.556;2023-10-13T10:58:02;100562.47;;;18.05;100.00
7052;BME280;3567;52.444;13.556;2023-10-13T11:00:30;100565.78;;;18.02;100.00
7052;BME280;3567;52.444;13.556;2023-10-13T11:03:12;100549.25;;;17.98;100.00
7052;BME280;3567;52.444;13.556;2023-10-13T11:05:45;100550.66;;;17.96;100.00
7052;BME280;3567;52.444;13.556;2023-10-13T11:08:21;100539.81;;;17.96;100.00
7052;BME280;3567;52.444;13.556;2023-10-13T11:10:52;100523.56;;;17.96;100.00
7052;BME280;3567;52.444;13.556;2023-10-13T11:13:17;100525.69;;;17.99;100.00
7052;BME280;3567;52.444;13.556;2023-10-13T11:15:48;100524.31;;;18.01;100.00
7052;BME280;3567;52.444;13.556;2023-10-13T11:18:15;100506.91;;;18.08;100.00
7052;BME280;3567;52.444;13.556;2023-10-13T11:20:47;100492.78;;;18.11;100.00
7052;BME280;3567;52.444;13.556;2023-10-13T11:23:19;100512.53;;;18.16;100.00
7052;BME280;3567;52.444;13.556;2023-10-13T11:25:56;100505.44;;;18.20;100.00
7052;BME280;3567;52.444;13.556;2023-10-13T11:28:21;100492.44;;;18.22;100.00
7052;BME280;3567;52.444;13.556;2023-10-13T11:30:53;100501.88;;;18.25;100.00
7052;BME280;3567;52.444;13.556;2023-10-13T11:33:22;100489.66;;;18.27;100.00
7052;BME280;3567;52.444;13.556;2023-10-13T11:35:51;100502.94;;;18.29;100.00
7052;BME280;3567;52.444;13.556;2023-10-13T11:38:27;100489.09;;;18.30;100.00
7052;BME280;3567;52.444;13.556;2023-10-13T11:41:03;100485.81;;;18.33;100.00
7052;BME280;3567;52.444;13.556;2023-10-13T11:46:12;100476.81;;;18.38;100.00
7052;BME280;3567;52.444;13.556;2023-10-13T11:48:40;100478.13;;;18.41;100.00
7052;BME280;3567;52.444;13.556;2023-10-13T11:51:10;100472.16;;;18.44;100.00
7052;BME280;3567;52.444;13.556;2023-10-13T11:53:57;100474.00;;;18.48;100.00
7052;BME280;3567;52.444;13.556;2023-10-13T11:56:24;100468.00;;;18.51;100.00
7052;BME280;3567;52.444;13.556;2023-10-13T11:58:50;100472.56;;;18.56;100.00
7052;BME280;3567;52.444;13.556;2023-10-13T12:01:15;100474.91;;;18.63;100.00
7052;BME280;3567;52.444;13.556;2023-10-13T12:03:48;100478.41;;;18.68;100.00
7052;BME280;3567;52.444;13.556;2023-10-13T12:06:33;100464.50;;;18.75;100.00
7052;BME280;3567;52.444;13.556;2023-10-13T12:12:05;100460.59;;;18.86;100.00
7052;BME280;3567;52.444;13.556;2023-10-13T12:14:30;100456.69;;;18.92;100.00
7052;BME280;3567;52.444;13.556;2023-10-13T12:17:05;100443.88;;;18.98;100.00
7052;BME280;3567;52.444;13.556;2023-10-13T12:19:36;100440.56;;;19.01;100.00
7052;BME280;3567;52.444;13.556;2023-10-13T12:22:04;100442.13;;;19.07;100.00
7052;BME280;3567;52.444;13.556;2023-10-13T12:24:33;100439.03;;;19.14;100.00
7052;BME280;3567;52.444;13.556;2023-10-13T12:27:05;100430.53;;;19.20;100.00
7052;BME280;3567;52.444;13.556;2023-10-13T12:29:52;100436.91;;;19.29;100.00
7052;BME280;3567;52.444;13.556;2023-10-13T12:32:21;100427.28;;;19.37;100.00
7052;BME280;3567;52.444;13.556;2023-10-13T12:34:51;100416.34;;;19.42;100.00
7052;BME280;3567;52.444;13.556;2023-10-13T12:37:42;100425.75;;;19.50;100.00
7052;BME280;3567;52.444;13.556;2023-10-13T12:40:09;100417.00;;;19.53;100.00
7052;BME280;3567;52.444;13.556;2023-10-13T12:42:53;100409.06;;;19.56;100.00
7052;BME280;3567;52.444;13.556;2023-10-13T12:45:39;100406.59;;;19.60;100.00
7052;BME280;3567;52.444;13.556;2023-10-13T12:48:23;100393.75;;;19.66;100.00
7052;BME280;3567;52.444;13.556;2023-10-13T12:51:07;100387.41;;;19.70;100.00
7052;BME280;3567;52.444;13.556;2023-10-13T12:53:52;100386.72;;;19.78;100.00
7052;BME280;3567;52.444;13.556;2023-10-13T12:56:18;100381.69;;;19.85;100.00
7052;BME280;3567;52.444;13.556;2023-10-13T12:58:54;100368.53;;;19.93;100.00
7052;BME280;3567;52.444;13.556;2023-10-13T13:03:49;100358.06;;;20.00;100.00
7052;BME280;3567;52.444;13.556;2023-10-13T13:06:19;100357.97;;;20.05;99.97
7052;BME280;3567;52.444;13.556;2023-10-13T13:08:53;100362.22;;;20.11;99.68
7052;BME280;3567;52.444;13.556;2023-10-13T13:11:19;100358.59;;;20.15;99.70
7052;BME280;3567;52.444;13.556;2023-10-13T13:13:44;100348.09;;;20.23;99.14
7052;BME280;3567;52.444;13.556;2023-10-13T13:16:16;100346.09;;;20.28;98.20
7052;BME280;3567;52.444;13.556;2023-10-13T13:18:55;100337.53;;;20.35;97.84
7052;BME280;3567;52.444;13.556;2023-10-13T13:21:21;100332.19;;;20.44;97.58
7052;BME280;3567;52.444;13.556;2023-10-13T13:23:53;100323.03;;;20.53;96.74
7052;BME280;3567;52.444;13.556;2023-10-13T13:26:24;100326.72;;;20.71;96.19
7052;BME280;3567;52.444;13.556;2023-10-13T13:28:50;100322.66;;;20.82;95.52
7052;BME280;3567;52.444;13.556;2023-10-13T13:31:19;100323.41;;;20.97;94.71
7052;BME280;3567;52.444;13.556;2023-10-13T13:33:50;100314.66;;;21.22;93.78
7052;BME280;3567;52.444;13.556;2023-10-13T13:36:15;100313.72;;;21.49;92.73
7052;BME280;3567;52.444;13.556;2023-10-13T13:38:44;100313.94;;;21.61;91.92
7052;BME280;3567;52.444;13.556;2023-10-13T13:41:17;100312.66;;;21.59;91.00
7052;BME280;3567;52.444;13.556;2023-10-13T13:43:44;100316.94;;;21.51;91.15
7052;BME280;3567;52.444;13.556;2023-10-13T13:46:18;100323.63;;;21.45;91.08